createdAt,value
2019-05-19T00:00:54.091Z,83.00
2019-05-19T00:03:24.249Z,83.80
2019-05-19T00:05:54.434Z,83.10
2019-05-19T00:08:24.756Z,84.30
2019-05-19T00:10:54.879Z,83.20
2019-05-19T00:13:25.214Z,83.70
2019-05-19T00:15:55.318Z,83.50
2019-05-19T00:18:27.703Z,83.90
2019-05-19T00:20:57.810Z,85.40
2019-05-19T00:23:27.929Z,84.20
2019-05-19T00:26:00.508Z,84.90
2019-05-19T00:28:30.835Z,84.90
2019-05-19T00:31:00.952Z,85.20
2019-05-19T00:33:31.273Z,85.20
2019-05-19T00:36:01.392Z,84.90
2019-05-19T00:38:31.749Z,85.20
2019-05-19T00:41:01.836Z,85.20
2019-05-19T00:43:31.955Z,85.00
2019-05-19T00:46:02.073Z,85.00
2019-05-19T00:48:32.194Z,84.70
2019-05-19T00:51:02.314Z,84.60
2019-05-19T00:53:32.434Z,85.50
2019-05-19T00:56:02.861Z,85.50
2019-05-19T00:58:34.902Z,85.10
2019-05-19T01:01:05.073Z,84.40
2019-05-19T01:03:35.365Z,85.40
2019-05-19T01:06:05.893Z,84.70
2019-05-19T01:08:36.222Z,86.10
2019-05-19T01:11:06.338Z,85.30
2019-05-19T01:13:36.486Z,85.80
2019-05-19T01:16:06.590Z,85.60
2019-05-19T01:18:36.699Z,84.90
2019-05-19T01:21:06.978Z,85.60
2019-05-19T01:23:37.153Z,85.70
2019-05-19T01:26:07.467Z,85.40
2019-05-19T01:28:37.581Z,85.90
2019-05-19T01:31:07.907Z,85.30
2019-05-19T01:33:38.507Z,86.30
2019-05-19T01:36:10.198Z,85.80
2019-05-19T01:38:40.310Z,86.30
2019-05-19T01:41:10.431Z,85.80
2019-05-19T01:43:40.755Z,86.20
2019-05-19T01:46:10.876Z,86.10
2019-05-19T01:48:40.996Z,86.00
2019-05-19T01:51:11.111Z,85.90
2019-05-19T01:53:41.233Z,85.40
2019-05-19T01:56:11.352Z,86.20
2019-05-19T01:58:41.469Z,85.60
2019-05-19T02:01:11.797Z,85.50
2019-05-19T02:03:41.917Z,86.70
2019-05-19T02:06:12.242Z,86.00
2019-05-19T02:08:42.355Z,86.70
2019-05-19T02:11:12.484Z,87.10
2019-05-19T02:13:42.593Z,86.40
2019-05-19T02:16:12.921Z,86.10
2019-05-19T02:18:44.403Z,86.20
2019-05-19T02:21:14.591Z,87.10
2019-05-19T02:23:44.710Z,87.30
2019-05-19T02:26:15.053Z,87.10
2019-05-19T02:28:45.151Z,86.90
2019-05-19T02:31:15.274Z,86.60
2019-05-19T02:33:45.597Z,87.40
2019-05-19T02:36:15.820Z,86.30
2019-05-19T02:38:46.755Z,86.60
2019-05-19T02:41:18.718Z,86.80
2019-05-19T02:43:50.888Z,87.40
2019-05-19T02:46:25.431Z,86.80
2019-05-19T02:48:57.068Z,86.80
2019-05-19T02:51:30.172Z,87.00
2019-05-19T02:54:02.018Z,87.20
2019-05-19T02:56:34.096Z,87.50
2019-05-19T02:59:06.145Z,86.80
2019-05-19T03:01:39.438Z,87.10
2019-05-19T03:04:09.758Z,87.70
2019-05-19T03:06:39.888Z,87.60
2019-05-19T03:09:09.996Z,87.60
2019-05-19T03:11:40.129Z,88.00
2019-05-19T03:14:10.237Z,87.10
2019-05-19T03:16:40.361Z,87.50
2019-05-19T03:19:13.343Z,87.30
2019-05-19T03:21:43.472Z,87.40
2019-05-19T03:24:13.787Z,87.20
2019-05-19T03:26:44.109Z,87.70
2019-05-19T03:29:15.867Z,88.00
2019-05-19T03:31:53.357Z,87.50
2019-05-19T03:34:25.117Z,88.60
2019-05-19T03:36:55.563Z,87.50
2019-05-19T03:39:25.599Z,88.20
2019-05-19T03:41:55.680Z,88.30
2019-05-19T03:44:25.801Z,87.90
2019-05-19T03:46:55.915Z,88.20
2019-05-19T03:49:26.039Z,88.10
2019-05-19T03:51:56.367Z,88.40
2019-05-19T03:54:26.479Z,87.60
2019-05-19T03:56:56.599Z,88.40
2019-05-19T03:59:26.630Z,88.20
2019-05-19T04:01:56.838Z,88.50
2019-05-19T04:04:26.959Z,88.00
2019-05-19T04:06:59.812Z,88.50
2019-05-19T04:09:30.088Z,88.60
2019-05-19T04:12:00.301Z,88.60
2019-05-19T04:14:31.327Z,88.10
2019-05-19T04:17:01.446Z,88.20
2019-05-19T04:19:32.790Z,87.70
2019-05-19T04:22:02.918Z,87.50
2019-05-19T04:24:34.654Z,88.20
2019-05-19T04:27:04.794Z,88.50
2019-05-19T04:29:38.750Z,87.90
2019-05-19T04:32:06.666Z,87.70
2019-05-19T04:34:36.782Z,88.00
2019-05-19T04:37:06.900Z,88.40
2019-05-19T04:39:37.019Z,88.40
2019-05-19T04:42:07.140Z,88.20
2019-05-19T04:44:37.260Z,89.30
2019-05-19T04:47:07.385Z,88.80
2019-05-19T04:49:37.504Z,88.50
2019-05-19T04:52:07.749Z,88.40
2019-05-19T04:54:38.150Z,88.10
2019-05-19T04:57:08.474Z,89.40
2019-05-19T04:59:38.588Z,88.60
2019-05-19T05:02:08.921Z,88.20
2019-05-19T05:04:39.042Z,87.90
2019-05-19T05:07:09.154Z,88.30
2019-05-19T05:09:39.270Z,88.60
2019-05-19T05:12:09.391Z,88.90
2019-05-19T05:14:39.891Z,88.80
2019-05-19T05:17:10.391Z,88.40
2019-05-19T05:19:40.531Z,89.00
2019-05-19T05:22:21.612Z,89.10
2019-05-19T05:24:42.452Z,88.90
2019-05-19T05:27:13.760Z,89.30
2019-05-19T05:29:44.732Z,89.40
2019-05-19T05:32:14.950Z,89.20
2019-05-19T05:34:46.314Z,88.60
2019-05-19T05:37:18.567Z,89.00
2019-05-19T05:39:48.793Z,89.50
2019-05-19T05:42:18.911Z,88.60
2019-05-19T05:44:49.028Z,88.60
2019-05-19T05:47:19.153Z,89.10
2019-05-19T05:49:50.303Z,88.20
2019-05-19T05:52:20.616Z,88.30
2019-05-19T05:54:50.734Z,88.80
2019-05-19T05:57:20.859Z,89.60
2019-05-19T05:59:51.187Z,89.40
2019-05-19T06:02:21.301Z,89.50
2019-05-19T06:04:51.417Z,89.10
2019-05-19T06:07:21.338Z,88.90
2019-05-19T06:09:51.448Z,89.10
2019-05-19T06:12:21.568Z,89.10
2019-05-19T06:14:51.688Z,89.30
2019-05-19T06:17:22.039Z,92.20
2019-05-19T06:19:52.407Z,93.80
2019-05-19T06:22:22.658Z,94.90
2019-05-19T06:24:52.983Z,94.70
2019-05-19T06:27:23.107Z,93.40
2019-05-19T06:29:53.425Z,92.30
2019-05-19T06:32:31.129Z,91.90
2019-05-19T06:35:01.270Z,91.40
2019-05-19T06:37:31.575Z,91.40
2019-05-19T06:40:02.096Z,91.30
2019-05-19T06:42:32.221Z,91.20
2019-05-19T06:45:02.339Z,91.20
2019-05-19T06:47:32.662Z,91.20
2019-05-19T06:50:02.983Z,90.90
2019-05-19T06:52:33.111Z,90.90
2019-05-19T06:55:03.253Z,90.70
2019-05-19T06:57:33.413Z,90.70
2019-05-19T07:00:04.610Z,90.70
2019-05-19T07:02:34.810Z,90.60
2019-05-19T07:05:06.495Z,90.90
2019-05-19T07:07:36.527Z,90.80
2019-05-19T07:10:08.448Z,90.90
2019-05-19T07:12:38.765Z,91.00
2019-05-19T07:15:09.498Z,91.20
2019-05-19T07:17:39.413Z,90.80
2019-05-19T07:20:09.844Z,91.00
2019-05-19T07:22:40.072Z,90.80
2019-05-19T07:25:10.589Z,91.30
2019-05-19T07:27:40.749Z,91.00
2019-05-19T07:30:11.035Z,91.10
2019-05-19T07:32:41.152Z,91.40
2019-05-19T07:35:11.480Z,91.20
2019-05-19T07:37:41.599Z,91.40
2019-05-19T07:40:11.879Z,91.10
2019-05-19T07:42:41.910Z,91.70
2019-05-19T07:45:14.002Z,91.50
2019-05-19T07:47:44.126Z,91.60
2019-05-19T07:50:14.240Z,91.70
2019-05-19T07:52:44.359Z,91.70
2019-05-19T07:55:14.684Z,91.80
2019-05-19T07:57:45.213Z,91.60
2019-05-19T08:00:15.535Z,91.80
2019-05-19T08:02:45.863Z,91.90
2019-05-19T08:05:16.387Z,91.80
2019-05-19T08:07:46.521Z,92.10
2019-05-19T08:10:17.244Z,91.90
2019-05-19T08:12:47.359Z,92.20
2019-05-19T08:15:17.484Z,92.10
2019-05-19T08:17:47.599Z,91.90
2019-05-19T08:20:19.362Z,91.80
2019-05-19T08:22:51.372Z,92.00
2019-05-19T08:25:21.235Z,91.90
2019-05-19T08:27:51.352Z,92.00
2019-05-19T08:30:21.462Z,92.40
2019-05-19T08:32:51.524Z,92.20
2019-05-19T08:35:21.528Z,92.20
2019-05-19T08:37:51.562Z,92.90
2019-05-19T08:40:24.410Z,92.60
2019-05-19T08:42:54.728Z,92.50
2019-05-19T08:45:25.053Z,92.70
2019-05-19T08:47:55.175Z,93.50
2019-05-19T08:50:25.315Z,94.10
2019-05-19T08:52:55.413Z,95.30
2019-05-19T08:55:25.535Z,94.60
2019-05-19T08:57:55.853Z,94.30
2019-05-19T09:00:26.928Z,94.00
2019-05-19T09:02:57.115Z,93.70
2019-05-19T09:05:27.246Z,93.50
2019-05-19T09:07:57.389Z,93.40
2019-05-19T09:10:29.117Z,93.50
2019-05-19T09:12:59.438Z,93.40
2019-05-19T09:15:29.554Z,93.40
2019-05-19T09:17:59.675Z,93.30
2019-05-19T09:20:29.793Z,93.30
2019-05-19T09:23:00.121Z,93.10
2019-05-19T09:25:30.249Z,93.10
2019-05-19T09:28:00.278Z,92.80
2019-05-19T09:30:30.477Z,92.90
2019-05-19T09:33:00.596Z,92.90
2019-05-19T09:35:30.713Z,92.90
2019-05-19T09:38:01.040Z,92.60
2019-05-19T09:40:31.362Z,92.50
2019-05-19T09:43:01.493Z,92.60
2019-05-19T09:45:31.805Z,92.50
2019-05-19T09:48:01.935Z,92.50
2019-05-19T09:50:32.050Z,92.50
2019-05-19T09:53:02.237Z,92.50
2019-05-19T09:55:32.691Z,92.60
2019-05-19T09:58:03.018Z,92.60
2019-05-19T10:00:33.134Z,92.10
2019-05-19T10:03:03.329Z,92.10
2019-05-19T10:05:33.371Z,91.80
2019-05-19T10:08:03.491Z,91.90
2019-05-19T10:10:42.965Z,91.90
2019-05-19T10:13:13.151Z,91.90
2019-05-19T10:15:43.279Z,91.90
2019-05-19T10:18:13.427Z,91.60
2019-05-19T10:20:43.714Z,91.60
2019-05-19T10:23:13.837Z,91.60
2019-05-19T10:25:43.785Z,91.60
2019-05-19T10:28:13.868Z,91.50
2019-05-19T10:30:43.996Z,91.40
2019-05-19T10:33:14.311Z,91.50
2019-05-19T10:35:44.429Z,91.30
2019-05-19T10:38:17.735Z,91.00
2019-05-19T10:40:46.926Z,90.80
2019-05-19T10:43:17.054Z,90.90
2019-05-19T10:45:48.797Z,90.70
2019-05-19T10:48:19.122Z,90.60
2019-05-19T10:50:49.248Z,90.50
2019-05-19T10:53:19.385Z,90.50
2019-05-19T10:55:49.683Z,90.60
2019-05-19T10:58:19.804Z,90.90
2019-05-19T11:00:49.922Z,90.90
2019-05-19T11:03:20.053Z,91.00
2019-05-19T11:05:50.366Z,90.50
2019-05-19T11:08:20.607Z,90.40
2019-05-19T11:10:50.807Z,90.90
2019-05-19T11:13:20.867Z,91.60
2019-05-19T11:15:51.046Z,91.40
2019-05-19T11:18:21.169Z,91.50
2019-05-19T11:20:51.284Z,90.80
2019-05-19T11:23:21.405Z,90.60
2019-05-19T11:25:51.989Z,91.30
2019-05-19T11:28:22.258Z,91.70
2019-05-19T11:30:52.582Z,90.70
2019-05-19T11:33:22.904Z,91.00
2019-05-19T11:35:53.438Z,91.00
2019-05-19T11:38:23.552Z,90.60
2019-05-19T11:40:53.673Z,90.60
2019-05-19T11:43:23.997Z,90.90
2019-05-19T11:45:54.337Z,90.90
2019-05-19T11:48:24.444Z,90.40
2019-05-19T11:50:54.765Z,90.00
2019-05-19T11:53:24.883Z,90.20
2019-05-19T11:56:06.154Z,90.40
2019-05-19T11:58:26.987Z,89.80
2019-05-19T12:00:57.288Z,89.90
2019-05-19T12:03:27.440Z,90.00
2019-05-19T12:05:57.735Z,90.10
2019-05-19T12:08:27.858Z,90.00
2019-05-19T12:10:57.970Z,90.00
2019-05-19T12:13:28.090Z,89.80
2019-05-19T12:15:58.413Z,89.60
2019-05-19T12:18:28.539Z,89.80
2019-05-19T12:20:58.655Z,90.00
2019-05-19T12:23:28.780Z,89.90
2019-05-19T12:25:58.927Z,90.00
2019-05-19T12:28:29.419Z,89.60
2019-05-19T12:30:59.540Z,90.20
2019-05-19T12:33:29.662Z,89.70
2019-05-19T12:35:59.777Z,89.90
2019-05-19T12:38:29.895Z,89.30
2019-05-19T12:41:00.014Z,90.10
2019-05-19T12:43:30.140Z,89.10
2019-05-19T12:46:00.469Z,90.10
2019-05-19T12:48:30.588Z,88.50
2019-05-19T12:51:00.696Z,88.90
2019-05-19T12:53:31.026Z,88.30
2019-05-19T12:56:01.141Z,88.90
2019-05-19T12:58:31.510Z,88.50
2019-05-19T13:01:01.790Z,88.30
2019-05-19T13:03:32.113Z,88.50
2019-05-19T13:06:02.230Z,88.70
2019-05-19T13:08:32.453Z,88.20
2019-05-19T13:11:02.675Z,88.30
2019-05-19T13:13:32.799Z,89.10
2019-05-19T13:16:02.914Z,89.00
2019-05-19T13:18:33.033Z,90.40
2019-05-19T13:21:03.155Z,90.40
2019-05-19T13:23:33.269Z,89.30
2019-05-19T13:26:03.391Z,89.70
2019-05-19T13:28:33.509Z,90.00
2019-05-19T13:31:03.839Z,89.50
2019-05-19T13:33:33.936Z,89.10
2019-05-19T13:36:04.276Z,88.40
2019-05-19T13:38:40.601Z,88.40
2019-05-19T13:41:11.538Z,89.00
2019-05-19T13:43:47.400Z,88.60
2019-05-19T13:46:21.606Z,89.40
2019-05-19T13:48:52.303Z,88.70
2019-05-19T13:51:22.488Z,87.70
2019-05-19T13:53:52.672Z,88.40
2019-05-19T13:56:22.864Z,88.20
2019-05-19T13:58:53.041Z,87.70
2019-05-19T14:01:28.554Z,87.60
2019-05-19T14:03:54.850Z,88.10
2019-05-19T14:06:24.947Z,87.00
2019-05-19T14:08:55.229Z,86.80
2019-05-19T14:11:25.247Z,86.80
2019-05-19T14:13:56.370Z,87.60
2019-05-19T14:16:26.579Z,86.50
2019-05-19T14:18:56.764Z,87.50
2019-05-19T14:21:26.978Z,86.40
2019-05-19T14:23:57.325Z,86.20
2019-05-19T14:26:27.514Z,87.10
2019-05-19T14:28:57.574Z,86.40
2019-05-19T14:31:27.795Z,87.00
2019-05-19T14:33:58.071Z,87.50
2019-05-19T14:36:28.232Z,86.20
2019-05-19T14:39:05.317Z,83.90
2019-05-19T14:41:34.740Z,83.60
2019-05-19T14:44:05.021Z,84.20
2019-05-19T14:46:35.217Z,81.20
2019-05-19T14:49:05.168Z,83.30
2019-05-19T14:51:35.381Z,83.00
2019-05-19T14:54:05.834Z,82.30
2019-05-19T14:56:35.947Z,81.70
2019-05-19T14:59:06.275Z,81.50
2019-05-19T15:01:36.624Z,81.40
2019-05-19T15:04:06.798Z,81.50
2019-05-19T15:06:36.883Z,81.30
2019-05-19T15:09:07.277Z,81.30
2019-05-19T15:11:37.395Z,81.50
2019-05-19T15:14:07.436Z,81.10
2019-05-19T15:16:37.527Z,81.30
2019-05-19T15:19:07.527Z,81.10
2019-05-19T15:21:37.770Z,81.40
2019-05-19T15:24:07.955Z,81.60
2019-05-19T15:26:37.941Z,81.60
2019-05-19T15:29:07.962Z,81.60
2019-05-19T15:31:38.187Z,81.60
2019-05-19T15:34:08.285Z,81.80
2019-05-19T15:36:38.483Z,81.90
2019-05-19T15:39:08.511Z,81.70
2019-05-19T15:41:38.631Z,82.00
2019-05-19T15:44:08.816Z,81.70
2019-05-19T15:46:39.002Z,82.00
2019-05-19T15:49:09.191Z,82.10
2019-05-19T15:51:39.368Z,82.10
2019-05-19T15:54:09.572Z,82.20
2019-05-19T15:56:39.740Z,82.10
2019-05-19T15:59:09.920Z,82.20
2019-05-19T16:01:40.106Z,82.10
2019-05-19T16:04:10.288Z,82.40
2019-05-19T16:06:40.471Z,82.60
2019-05-19T16:09:10.865Z,82.60
2019-05-19T16:11:41.045Z,82.50
2019-05-19T16:14:11.229Z,82.70
2019-05-19T16:16:41.418Z,82.70
2019-05-19T16:19:11.597Z,82.80
2019-05-19T16:21:42.395Z,82.70
2019-05-19T16:24:12.581Z,82.70
2019-05-19T16:26:42.764Z,82.80
2019-05-19T16:29:13.364Z,82.90
2019-05-19T16:31:43.551Z,82.70
2019-05-19T16:34:13.730Z,82.90
2019-05-19T16:36:43.915Z,83.20
2019-05-19T16:39:14.093Z,83.20
2019-05-19T16:41:44.279Z,83.50
2019-05-19T16:44:14.439Z,83.70
2019-05-19T16:46:44.620Z,83.50
2019-05-19T16:49:14.782Z,83.30
2019-05-19T16:51:45.083Z,83.20
2019-05-19T16:54:19.364Z,83.60
2019-05-19T16:56:49.554Z,83.70
2019-05-19T16:59:19.736Z,83.40
2019-05-19T17:01:49.921Z,83.60
2019-05-19T17:04:20.107Z,83.80
2019-05-19T17:06:50.212Z,84.20
2019-05-19T17:09:20.278Z,84.10
2019-05-19T17:11:50.409Z,84.30
2019-05-19T17:14:20.618Z,84.00
2019-05-19T17:16:50.802Z,84.20
2019-05-19T17:19:21.004Z,84.30
2019-05-19T17:21:51.381Z,84.60
2019-05-19T17:24:21.565Z,84.20
2019-05-19T17:26:51.675Z,84.00
2019-05-19T17:29:21.858Z,84.20
2019-05-19T17:32:04.026Z,84.30
2019-05-19T17:34:23.738Z,84.00
2019-05-19T17:36:53.762Z,84.80
2019-05-19T17:39:23.874Z,84.30
2019-05-19T17:41:53.808Z,84.30
2019-05-19T17:44:23.863Z,85.00
2019-05-19T17:46:54.063Z,84.40
2019-05-19T17:49:24.440Z,85.20
2019-05-19T17:51:54.378Z,84.90
2019-05-19T17:54:25.225Z,85.00
2019-05-19T17:56:57.259Z,85.70
2019-05-19T17:59:27.446Z,85.40
2019-05-19T18:01:57.627Z,84.90
2019-05-19T18:04:27.634Z,85.40
2019-05-19T18:06:57.792Z,85.20
2019-05-19T18:09:28.074Z,85.00
2019-05-19T18:11:58.162Z,85.60
2019-05-19T18:14:28.167Z,85.30
2019-05-19T18:16:58.328Z,85.30
2019-05-19T18:19:28.298Z,85.40
2019-05-19T18:21:58.504Z,85.60
2019-05-19T18:24:28.504Z,84.80
2019-05-19T18:26:58.667Z,85.40
2019-05-19T18:29:31.318Z,85.40
2019-05-19T18:32:00.675Z,85.70
2019-05-19T18:34:30.859Z,85.20
2019-05-19T18:37:00.985Z,85.90
2019-05-19T18:39:31.163Z,85.30
2019-05-19T18:42:01.532Z,85.40
2019-05-19T18:44:31.485Z,86.30
2019-05-19T18:47:01.682Z,85.90
2019-05-19T18:49:31.880Z,86.10
2019-05-19T18:52:02.058Z,86.10
2019-05-19T18:54:32.242Z,86.40
2019-05-19T18:57:02.426Z,85.80
2019-05-19T18:59:46.508Z,86.20
2019-05-19T19:02:04.234Z,86.40
2019-05-19T19:04:37.285Z,86.00
2019-05-19T19:07:07.469Z,87.00
2019-05-19T19:09:37.455Z,86.00
2019-05-19T19:12:07.658Z,86.40
2019-05-19T19:14:37.808Z,86.70
2019-05-19T19:17:08.181Z,87.00
2019-05-19T19:19:38.364Z,86.90
2019-05-19T19:22:08.543Z,87.10
2019-05-19T19:24:38.787Z,86.70
2019-05-19T19:27:09.124Z,87.20
2019-05-19T19:29:39.306Z,87.10
2019-05-19T19:32:09.580Z,87.00
2019-05-19T19:34:39.874Z,87.10
2019-05-19T19:37:09.961Z,87.30
2019-05-19T19:39:40.142Z,87.70
2019-05-19T19:42:10.328Z,87.20
2019-05-19T19:44:40.715Z,87.80
2019-05-19T19:47:10.833Z,87.50
2019-05-19T19:49:40.964Z,87.80
2019-05-19T19:52:11.428Z,87.70
2019-05-19T19:54:41.812Z,87.90
2019-05-19T19:57:11.997Z,87.80
2019-05-19T19:59:42.389Z,87.50
2019-05-19T20:02:12.632Z,87.90
2019-05-19T20:04:42.767Z,87.90
2019-05-19T20:07:12.946Z,87.60
2019-05-19T20:09:43.131Z,87.90
2019-05-19T20:12:13.318Z,87.80
2019-05-19T20:14:44.733Z,88.10
2019-05-19T20:17:14.852Z,87.90
2019-05-19T20:19:44.996Z,88.00
2019-05-19T20:22:15.088Z,87.70
2019-05-19T20:24:45.266Z,87.90
2019-05-19T20:27:15.452Z,87.40
2019-05-19T20:29:45.842Z,88.20
2019-05-19T20:32:16.040Z,88.00
2019-05-19T20:34:46.215Z,86.90
2019-05-19T20:37:16.400Z,87.80
2019-05-19T20:39:46.793Z,88.10
2019-05-19T20:42:17.211Z,87.50
2019-05-19T20:44:47.574Z,87.20
2019-05-19T20:47:17.759Z,87.70
2019-05-19T20:49:47.944Z,88.10
2019-05-19T20:52:18.132Z,88.30
2019-05-19T20:54:48.323Z,88.30
2019-05-19T20:57:18.486Z,88.10
2019-05-19T20:59:48.653Z,88.40
2019-05-19T21:02:18.842Z,88.00
2019-05-19T21:04:49.028Z,87.90
2019-05-19T21:07:19.211Z,87.50
2019-05-19T21:09:49.399Z,87.50
2019-05-19T21:12:19.597Z,87.10
2019-05-19T21:14:49.771Z,87.90
2019-05-19T21:17:19.952Z,87.50
2019-05-19T21:19:50.131Z,87.90
2019-05-19T21:22:20.324Z,87.90
2019-05-19T21:24:50.709Z,87.80
2019-05-19T21:27:20.901Z,88.20
2019-05-19T21:29:51.081Z,87.90
2019-05-19T21:32:21.480Z,87.80
2019-05-19T21:34:51.663Z,86.80
2019-05-19T21:37:21.850Z,88.00
2019-05-19T21:39:52.030Z,88.10
2019-05-19T21:42:22.092Z,87.70
2019-05-19T21:44:52.206Z,88.00
2019-05-19T21:47:22.389Z,88.20
2019-05-19T21:49:52.569Z,87.90
2019-05-19T21:52:22.758Z,88.20
2019-05-19T21:54:52.939Z,88.20
2019-05-19T21:57:23.012Z,88.00
2019-05-19T21:59:53.110Z,87.20
2019-05-19T22:02:23.297Z,87.90
2019-05-19T22:04:53.486Z,87.90
2019-05-19T22:07:27.964Z,88.30
2019-05-19T22:09:58.149Z,88.00
2019-05-19T22:12:28.337Z,88.00
2019-05-19T22:14:58.519Z,88.40
2019-05-19T22:17:28.751Z,87.90
2019-05-19T22:19:59.074Z,88.00
2019-05-19T22:22:29.227Z,88.50
2019-05-19T22:24:59.409Z,88.20
2019-05-19T22:27:29.592Z,88.60
2019-05-19T22:29:59.781Z,88.20
2019-05-19T22:32:29.962Z,88.10
2019-05-19T22:35:00.147Z,88.90
2019-05-19T22:37:30.334Z,88.40
2019-05-19T22:40:00.930Z,88.50
2019-05-19T22:42:31.118Z,88.80
2019-05-19T22:45:01.318Z,88.50
2019-05-19T22:47:31.495Z,87.90
2019-05-19T22:50:01.647Z,88.60
2019-05-19T22:52:32.066Z,89.00
2019-05-19T22:55:02.230Z,89.00
2019-05-19T22:57:32.398Z,88.70
2019-05-19T23:00:02.585Z,89.00
2019-05-19T23:02:32.769Z,88.60
2019-05-19T23:05:02.967Z,88.60
2019-05-19T23:07:33.040Z,89.20
2019-05-19T23:10:03.546Z,88.60
2019-05-19T23:12:33.926Z,88.70
2019-05-19T23:15:06.974Z,89.40
2019-05-19T23:17:37.128Z,89.10
2019-05-19T23:20:07.451Z,89.20
2019-05-19T23:22:38.809Z,89.20
2019-05-19T23:25:08.759Z,89.60
2019-05-19T23:27:38.747Z,89.40
2019-05-19T23:30:09.862Z,89.60
2019-05-19T23:32:39.973Z,89.40
2019-05-19T23:35:10.375Z,89.50
2019-05-19T23:37:40.553Z,89.20
2019-05-19T23:40:11.145Z,90.20
2019-05-19T23:42:41.329Z,89.70
2019-05-19T23:45:11.888Z,89.90
2019-05-19T23:47:42.113Z,89.90
2019-05-19T23:50:12.454Z,90.00
2019-05-19T23:52:42.578Z,90.00
2019-05-19T23:55:13.542Z,90.00
2019-05-19T23:57:43.729Z,90.00
